CDT,Max TemperatureF,Mean TemperatureF,Min TemperatureF,Max Dew PointF,MeanDew PointF,Min DewpointF,Max Humidity, Mean Humidity, Min Humidity, Max Sea Level PressureIn, Mean Sea Level PressureIn, Min Sea Level PressureIn, Max VisibilityMiles, Mean VisibilityMiles, Min VisibilityMiles, Max Wind SpeedMPH, Mean Wind SpeedMPH, Max Gust SpeedMPH,PrecipitationIn, CloudCover, Events, WindDirDegrees
2013-9-1,102,89,75,61,58,55,54,39,23,29.87,29.81,29.77,10,10,8,15,6,21,T,0,,179
2013-9-2,95,85,75,66,62,59,74,54,33,30.00,29.90,29.83,10,10,10,24,7,28,0.00,3,,193
2013-9-3,99,84,68,65,59,48,81,53,24,30.01,29.95,29.88,10,10,10,14,5,16,0.00,0,,49
2013-9-4,99,81,63,55,46,34,60,36,11,30.04,29.99,29.95,10,10,10,14,5,18,0.00,0,,80
2013-9-5,98,85,71,63,59,47,68,48,28,30.07,30.01,29.96,10,10,10,22,7,25,0.00,2,,158
2013-9-6,98,86,73,65,60,54,73,49,24,30.07,30.00,29.93,10,10,10,15,7,25,0.00,2,,165
2013-9-7,94,84,74,64,59,53,64,47,29,30.01,29.95,29.90,10,10,10,26,7,35,0.00,2,,162
2013-9-8,94,82,69,66,63,58,84,59,33,29.95,29.91,29.83,10,10,10,22,9,25,0.00,0,,151
2013-9-9,92,81,69,66,62,59,84,60,36,29.96,29.91,29.86,10,10,10,20,10,33,0.00,1,,162
2013-9-10,89,79,69,67,64,60,84,62,40,30.11,29.99,29.94,10,10,10,21,13,31,T,3,,155
2013-9-11,92,80,68,67,62,53,90,59,28,30.18,30.05,29.97,10,10,10,20,9,25,0.00,2,,148
2013-9-12,94,81,67,66,60,55,76,55,33,30.07,30.00,29.92,10,10,10,18,7,25,0.00,1,,139
2013-9-13,95,82,69,64,59,54,73,51,28,29.97,29.90,29.80,10,10,10,16,6,22,0.00,2,,128
2013-9-14,95,83,70,65,60,54,73,51,28,29.93,29.86,29.81,10,10,8,16,9,21,0.00,3,,124
2013-9-15,94,84,73,63,61,58,64,47,30,29.99,29.93,29.87,10,10,10,21,10,26,0.00,1,,153
2013-9-16,90,81,71,67,64,60,79,59,38,30.06,30.01,29.96,10,10,9,23,6,29,T,1,Rain,124
2013-9-17,84,77,70,69,66,62,93,71,48,30.06,30.01,29.94,10,9,6,14,4,17,0.01,3,Rain,140
2013-9-18,94,84,74,67,61,55,74,52,30,29.98,29.91,29.83,10,10,10,22,10,26,0.00,1,,169
2013-9-19,80,76,71,72,68,60,93,74,54,30.02,29.92,29.86,10,9,4,14,7,18,0.50,5,Rain,133
2013-9-20,72,69,65,70,67,63,93,90,87,30.04,29.94,29.86,10,8,2,23,9,30,0.67,8,Rain,21
2013-9-21,83,70,57,63,53,43,93,59,24,30.05,29.97,29.90,10,10,10,14,7,22,0.00,2,,23
2013-9-22,84,69,54,54,50,45,93,61,28,29.92,29.85,29.77,10,10,10,14,5,22,0.00,0,,165
2013-9-23,87,71,55,56,51,48,83,56,29,29.80,29.76,29.70,10,10,10,21,10,28,0.00,0,,169
2013-9-24,90,76,61,56,53,50,78,52,26,29.96,29.88,29.79,10,10,10,15,7,25,0.00,0,,57
2013-9-25,93,78,63,58,54,50,67,48,28,29.89,29.81,29.72,10,10,10,20,9,26,0.00,0,,176
2013-9-26,91,80,69,58,56,52,61,45,28,29.83,29.77,29.72,10,10,10,26,14,32,0.00,0,,173
2013-9-27,89,80,71,70,65,54,84,67,50,29.92,29.81,29.74,10,10,10,25,17,32,0.00,3,,160
2013-9-28,78,69,59,70,61,51,97,78,58,30.11,29.97,29.74,10,7,1,30,12,37,2.00,6,Rain,357
2013-9-29,79,67,55,56,50,41,93,61,28,30.12,30.04,29.94,10,10,10,13,6,16,0.00,0,,9
2013-9-30,87,72,57,61,53,48,73,51,29,29.93,29.83,29.76,10,10,10,18,11,26,0.00,0,,175